createdAt,value
2018-05-21T11:48:40.665Z,26.83
2018-05-21T11:49:40.655Z,26.83
2018-05-21T11:50:40.693Z,26.85
2018-05-21T11:51:40.623Z,26.97
2018-05-21T11:52:40.654Z,26.95
2018-05-21T11:53:40.597Z,26.89
2018-05-21T11:54:40.588Z,27.03
2018-05-21T11:55:40.579Z,27.13
2018-05-21T11:56:40.568Z,27.23
2018-05-21T11:57:40.559Z,27.32
2018-05-21T11:58:40.559Z,27.30
2018-05-21T11:59:40.556Z,27.31
2018-05-21T12:00:40.530Z,27.26
2018-05-21T12:01:40.523Z,27.27
2018-05-21T12:02:40.583Z,27.30
2018-05-21T12:03:40.533Z,27.13
2018-05-21T12:04:40.489Z,27.19
2018-05-21T12:05:40.522Z,27.12
2018-05-21T12:06:40.480Z,27.16
2018-05-21T12:07:40.604Z,27.17
2018-05-21T12:36:20.659Z,27.75
2018-05-21T12:37:20.627Z,27.70
2018-05-21T12:38:20.605Z,27.88
2018-05-21T12:39:20.593Z,27.83
2018-05-21T12:40:20.584Z,27.87
2018-05-21T12:41:20.565Z,27.90
2018-05-21T12:42:20.550Z,27.88
2018-05-21T12:43:20.549Z,28.06
2018-05-21T12:44:20.527Z,28.24
2018-05-21T12:45:20.507Z,28.49
2018-05-21T12:46:20.502Z,28.61
2018-05-21T12:47:20.489Z,28.65
2018-05-21T12:48:20.493Z,28.93
2018-05-21T12:49:20.473Z,29.22
2018-05-21T12:50:20.460Z,29.49
2018-05-21T12:51:20.451Z,29.91
2018-05-21T12:52:20.445Z,30.20
2018-05-21T12:53:20.429Z,30.46
2018-05-21T12:54:20.437Z,30.21
2018-05-21T12:55:20.416Z,30.08
2018-05-21T12:56:20.417Z,30.05
2018-05-21T12:57:20.408Z,30.40
2018-05-21T12:58:20.408Z,30.70
2018-05-21T12:59:20.399Z,30.89
2018-05-21T13:00:20.392Z,30.93
2018-05-21T13:01:20.441Z,31.20
2018-05-21T13:02:20.384Z,31.10
2018-05-21T13:03:20.379Z,31.37
2018-05-21T13:04:20.376Z,31.33
2018-05-21T13:05:20.401Z,31.29
2018-05-21T13:06:20.368Z,31.29
2018-05-21T13:07:20.365Z,30.96
2018-05-21T13:08:20.362Z,31.08
2018-05-21T13:09:20.361Z,31.30
2018-05-21T13:10:20.357Z,31.52
2018-05-21T13:11:20.355Z,31.66
2018-05-21T13:12:20.353Z,31.67
2018-05-21T13:13:20.353Z,31.70
2018-05-21T13:14:20.372Z,31.86
2018-05-21T13:15:20.358Z,31.59
2018-05-21T13:16:20.350Z,30.99
2018-05-21T13:17:20.350Z,30.52
2018-05-21T13:18:20.350Z,30.30
2018-05-21T13:19:20.346Z,30.22
2018-05-21T13:20:20.344Z,30.64
2018-05-21T13:21:20.339Z,30.46
2018-05-21T13:22:20.343Z,30.58
2018-05-21T13:23:20.342Z,30.65
2018-05-21T13:24:20.365Z,30.29
2018-05-21T13:25:20.337Z,29.86
2018-05-21T13:26:20.347Z,29.78
2018-05-21T13:27:20.335Z,29.37
2018-05-21T13:28:20.336Z,29.10
2018-05-21T13:29:20.342Z,28.83
2018-05-21T13:30:20.330Z,29.12
2018-05-21T13:31:20.328Z,29.39
2018-05-21T13:32:20.329Z,29.81
2018-05-21T13:33:20.321Z,30.33
2018-05-21T13:34:20.320Z,30.64
2018-05-21T13:35:20.321Z,30.92
2018-05-21T13:36:20.320Z,31.17
2018-05-21T13:37:20.313Z,31.38
2018-05-21T13:38:20.312Z,31.44
2018-05-21T13:39:20.306Z,31.67
2018-05-21T13:40:20.312Z,31.86
2018-05-21T13:41:20.307Z,31.61
2018-05-21T13:42:20.306Z,31.91
2018-05-21T13:43:20.404Z,32.16
2018-05-21T13:44:20.309Z,32.36
2018-05-21T13:45:20.306Z,32.60
2018-05-21T13:46:20.304Z,32.80
2018-05-21T13:47:20.300Z,32.77
2018-05-21T13:48:20.311Z,32.58
2018-05-21T13:49:20.296Z,32.55
2018-05-21T13:50:20.304Z,32.33
2018-05-21T13:51:20.302Z,32.33
2018-05-21T13:52:20.407Z,32.38
2018-05-21T13:53:20.306Z,32.58
2018-05-21T13:54:20.305Z,32.64
2018-05-21T13:55:20.312Z,32.55
2018-05-21T13:56:20.308Z,32.57
2018-05-21T13:57:20.306Z,32.70
2018-05-21T13:58:20.303Z,32.97
2018-05-21T13:59:20.303Z,33.14
2018-05-21T14:00:20.301Z,33.10
2018-05-21T14:01:20.307Z,33.19
2018-05-21T14:02:20.307Z,33.27
2018-05-21T14:03:20.322Z,33.27
2018-05-21T14:04:20.328Z,33.30
2018-05-21T14:05:20.325Z,33.27
2018-05-21T14:06:20.339Z,32.99
2018-05-21T14:07:20.318Z,32.63
2018-05-21T14:08:20.319Z,32.63
2018-05-21T14:09:20.315Z,32.53
2018-05-21T14:10:20.353Z,32.51
2018-05-21T14:11:20.352Z,32.60
2018-05-21T14:12:20.328Z,32.73
2018-05-21T14:13:20.330Z,32.61
2018-05-21T14:14:20.335Z,32.72
2018-05-21T14:15:20.327Z,32.72
2018-05-21T14:16:20.419Z,32.53
2018-05-21T14:17:20.363Z,32.58
2018-05-21T14:18:20.326Z,32.79
2018-05-21T14:19:20.324Z,32.77
2018-05-21T14:20:20.327Z,32.41
2018-05-21T14:21:20.329Z,31.52
2018-05-21T14:22:20.326Z,30.83
2018-05-21T14:23:20.335Z,30.32
2018-05-21T14:24:20.354Z,29.80
2018-05-21T14:25:20.418Z,29.43
2018-05-21T14:26:20.335Z,29.40
2018-05-21T14:27:20.337Z,29.28
2018-05-21T14:28:20.338Z,29.36
2018-05-21T14:29:20.336Z,29.68
2018-05-21T14:30:20.339Z,30.03
2018-05-21T14:31:20.331Z,30.24
2018-05-21T14:32:20.342Z,30.55
2018-05-21T14:33:20.439Z,30.52
2018-05-21T14:34:20.324Z,30.53
2018-05-21T14:35:20.321Z,30.37
2018-05-21T14:36:20.328Z,30.39
2018-05-21T14:37:20.335Z,30.14
2018-05-21T14:38:20.333Z,29.95
2018-05-21T14:39:20.333Z,29.86
2018-05-21T14:40:20.325Z,29.86
2018-05-21T14:41:20.338Z,29.84
2018-05-21T14:42:20.310Z,29.74
2018-05-21T14:43:20.326Z,29.62
2018-05-21T14:44:20.353Z,29.33
2018-05-21T14:45:20.308Z,29.31
2018-05-21T14:46:20.321Z,29.04
2018-05-21T14:47:20.314Z,28.75
2018-05-21T14:48:20.312Z,28.89
2018-05-21T14:49:20.302Z,28.93
2018-05-21T14:50:20.297Z,29.04
2018-05-21T14:51:20.292Z,29.24
2018-05-21T14:52:20.300Z,29.36
2018-05-21T14:53:20.288Z,29.83
2018-05-21T14:54:20.298Z,30.22
2018-05-21T14:55:20.287Z,30.55
2018-05-21T14:56:20.291Z,30.90
2018-05-21T14:57:20.298Z,31.17
2018-05-21T14:58:20.353Z,31.10
2018-05-21T14:59:20.272Z,30.70
2018-05-21T15:00:20.331Z,31.04
2018-05-21T15:01:20.277Z,31.59
2018-05-21T15:02:20.285Z,31.95
2018-05-21T15:03:20.262Z,32.06
2018-05-21T15:04:20.282Z,31.70
2018-05-21T15:05:20.255Z,31.27
2018-05-21T15:06:20.260Z,30.92
2018-05-21T15:07:20.259Z,30.71
2018-05-21T15:08:20.268Z,31.02
2018-05-21T15:09:20.259Z,31.29
2018-05-21T15:10:20.273Z,31.70
2018-05-21T15:11:20.258Z,31.89
2018-05-21T15:12:20.250Z,31.91
2018-05-21T15:13:20.245Z,31.95
2018-05-21T15:14:20.254Z,32.19
2018-05-21T15:15:20.240Z,32.39
2018-05-21T15:16:20.250Z,31.89
2018-05-21T15:17:20.246Z,31.29
2018-05-21T15:18:20.245Z,30.62
2018-05-21T15:19:20.236Z,31.05
2018-05-21T15:20:20.245Z,31.42
2018-05-21T15:21:20.251Z,31.74
2018-05-21T15:22:20.330Z,31.84
2018-05-21T15:23:20.229Z,31.82
2018-05-21T15:24:20.249Z,31.64
2018-05-21T15:25:20.235Z,31.12
2018-05-21T15:26:20.226Z,30.55
2018-05-21T15:27:20.228Z,29.96
2018-05-21T15:28:20.230Z,29.52
2018-05-21T15:29:20.232Z,29.10
2018-05-21T15:30:20.224Z,29.04
2018-05-21T15:31:20.250Z,29.33
2018-05-21T15:32:20.233Z,29.87
2018-05-21T15:33:20.214Z,30.33
2018-05-21T15:34:20.217Z,30.90
2018-05-21T15:35:20.213Z,31.42
2018-05-21T15:36:20.208Z,31.48
2018-05-21T15:37:20.213Z,31.68
2018-05-21T15:38:20.217Z,31.84
2018-05-21T15:39:20.208Z,31.86
2018-05-21T15:40:20.242Z,31.91
2018-05-21T15:41:20.192Z,31.75
2018-05-21T15:42:20.197Z,31.56
2018-05-21T15:43:20.267Z,31.70
2018-05-21T15:44:20.186Z,31.74
2018-05-21T15:45:20.177Z,31.54
2018-05-21T15:46:20.175Z,31.37
2018-05-21T15:47:20.182Z,31.37
2018-05-21T15:48:20.181Z,31.33
2018-05-21T15:49:20.191Z,31.34
2018-05-21T15:50:20.173Z,31.22
2018-05-21T15:51:20.168Z,31.17
2018-05-21T15:52:20.192Z,31.39
2018-05-21T15:53:20.172Z,31.32
2018-05-21T15:54:20.191Z,30.88
2018-05-21T15:55:20.180Z,30.60
2018-05-21T15:56:20.160Z,30.60
2018-05-21T15:57:20.153Z,30.58
2018-05-21T15:58:20.152Z,30.33
2018-05-21T15:59:20.142Z,30.29
2018-05-21T16:00:20.140Z,29.95
2018-05-21T16:01:20.138Z,29.66
2018-05-21T16:02:20.137Z,29.58
2018-05-21T16:03:20.150Z,29.52
2018-05-21T16:04:20.136Z,29.27
2018-05-21T16:05:20.131Z,29.09
2018-05-21T16:06:20.122Z,28.72
2018-05-21T16:07:20.134Z,28.64
2018-05-21T16:08:20.114Z,28.43
2018-05-21T16:09:20.117Z,28.15
2018-05-21T16:10:20.111Z,28.06
2018-05-21T16:11:20.107Z,28.03
2018-05-21T16:12:20.104Z,27.91
2018-05-21T16:13:20.099Z,27.80
2018-05-21T16:14:20.091Z,27.68
2018-05-21T16:15:20.084Z,27.85
2018-05-21T16:16:20.082Z,28.01
2018-05-21T16:17:20.074Z,27.88
2018-05-21T16:18:20.074Z,27.72
2018-05-21T16:19:20.069Z,27.68
2018-05-21T16:20:20.064Z,27.53
2018-05-21T16:21:20.061Z,27.42
2018-05-21T16:22:20.056Z,27.40
2018-05-21T16:23:20.099Z,27.20
2018-05-21T16:24:20.039Z,27.17
2018-05-21T16:25:20.049Z,27.07
2018-05-21T16:26:20.036Z,26.94
2018-05-21T16:27:20.019Z,26.85
2018-05-21T16:28:20.021Z,26.67
2018-05-21T16:29:20.005Z,26.58
2018-05-21T16:30:20.050Z,26.53
2018-05-21T16:31:20.003Z,26.52
2018-05-21T16:32:19.989Z,26.49
2018-05-21T16:33:19.991Z,26.38
2018-05-21T16:34:19.980Z,26.28
2018-05-21T16:35:19.973Z,26.23
2018-05-21T16:36:19.986Z,26.12
2018-05-21T16:37:19.995Z,26.16
2018-05-21T16:38:19.957Z,26.19
2018-05-21T16:39:19.944Z,26.10
2018-05-21T16:40:19.937Z,26.12
2018-05-21T16:41:19.935Z,26.23
2018-05-21T16:42:19.920Z,26.11
2018-05-21T16:43:19.915Z,26.10
2018-05-21T16:44:19.906Z,26.12
2018-05-21T16:45:19.903Z,26.10
2018-05-21T16:46:19.894Z,25.98
2018-05-21T16:47:19.897Z,25.89
2018-05-21T16:48:19.882Z,25.88
2018-05-21T16:49:19.871Z,25.81
2018-05-21T16:50:19.871Z,25.73
2018-05-21T16:51:19.865Z,25.63
2018-05-21T16:52:19.892Z,25.55
2018-05-21T16:53:19.865Z,25.52
2018-05-21T16:54:19.839Z,25.53
2018-05-21T16:55:19.860Z,25.43
2018-05-21T16:56:19.861Z,25.43
2018-05-21T16:57:19.835Z,25.37
2018-05-21T16:58:19.828Z,25.33
2018-05-21T16:59:19.803Z,25.33
2018-05-21T17:00:19.797Z,25.30
2018-05-21T17:01:19.775Z,25.30
2018-05-21T17:02:19.768Z,25.28
2018-05-21T17:03:19.761Z,25.23
2018-05-21T17:04:19.764Z,25.21
2018-05-21T17:05:19.743Z,25.16
2018-05-21T17:06:19.739Z,25.23
2018-05-21T17:07:19.846Z,25.14
2018-05-21T17:08:19.732Z,25.12
2018-05-21T17:09:19.708Z,25.09
2018-05-21T17:10:19.704Z,25.01
2018-05-21T17:11:19.694Z,24.99
2018-05-21T17:12:19.682Z,24.90
2018-05-21T17:13:19.705Z,24.89
2018-05-21T17:14:19.670Z,24.89
2018-05-21T17:15:19.674Z,24.97
2018-05-21T17:16:19.644Z,24.99
2018-05-21T17:17:19.646Z,24.90
2018-05-21T17:18:19.632Z,24.93
2018-05-21T17:19:19.621Z,24.94
2018-05-21T17:20:19.625Z,24.90
2018-05-21T17:21:19.603Z,24.96
2018-05-21T17:22:19.603Z,24.90
2018-05-21T17:23:19.600Z,24.91
2018-05-21T17:24:19.580Z,24.96
2018-05-21T17:25:19.569Z,24.89
2018-05-21T17:26:19.557Z,24.90
2018-05-21T17:27:19.547Z,24.91
2018-05-21T17:28:19.543Z,24.91
2018-05-21T17:29:19.549Z,24.96
2018-05-21T17:30:19.525Z,25.03
2018-05-21T17:31:19.513Z,25.14
2018-05-21T17:32:19.506Z,25.31
2018-05-21T17:33:19.489Z,25.31
2018-05-21T17:34:19.487Z,25.23
2018-05-21T17:35:19.481Z,25.12
2018-05-21T17:36:19.493Z,25.15
2018-05-21T17:37:19.458Z,25.12
2018-05-21T17:38:19.445Z,25.16
2018-05-21T17:39:19.440Z,25.11
2018-05-21T17:40:19.424Z,24.99
2018-05-21T17:41:19.422Z,25.03
2018-05-21T17:42:19.428Z,25.11
2018-05-21T17:43:19.403Z,25.04
2018-05-21T17:44:19.390Z,24.96
2018-05-21T17:45:19.409Z,24.85
2018-05-21T17:46:19.364Z,24.97
2018-05-21T17:47:19.401Z,24.91
2018-05-21T17:48:19.369Z,24.84
2018-05-21T17:49:19.389Z,24.85
2018-05-21T17:50:19.370Z,24.89
2018-05-21T17:51:19.325Z,24.79
2018-05-21T17:52:19.346Z,24.79
2018-05-21T17:53:19.319Z,24.85
2018-05-21T17:54:19.325Z,24.86
2018-05-21T17:55:19.317Z,24.82
2018-05-21T17:56:19.290Z,24.94
2018-05-21T17:57:19.288Z,24.94
2018-05-21T17:58:19.262Z,24.90
2018-05-21T17:59:19.249Z,24.84
2018-05-21T18:00:19.236Z,24.85
2018-05-21T18:01:19.239Z,24.84
2018-05-21T18:02:19.231Z,24.84
2018-05-21T18:03:19.319Z,24.71
2018-05-21T18:04:19.208Z,24.76
2018-05-21T18:05:19.196Z,24.76
2018-05-21T18:06:19.180Z,24.66
2018-05-21T18:07:19.171Z,24.70
2018-05-21T18:08:19.168Z,24.68
2018-05-21T18:09:19.157Z,24.63
2018-05-21T18:10:19.141Z,24.65
2018-05-21T18:11:19.147Z,24.58
2018-05-21T18:12:19.188Z,24.55
2018-05-21T18:13:19.138Z,24.51
2018-05-21T18:14:19.134Z,24.45
2018-05-21T18:15:19.099Z,24.44
2018-05-21T18:16:19.098Z,24.36
2018-05-21T18:17:19.081Z,24.38
2018-05-21T18:18:19.072Z,24.37
2018-05-21T18:19:19.057Z,24.36
2018-05-21T18:20:19.061Z,24.34
2018-05-21T18:21:19.164Z,24.31
2018-05-21T18:22:19.044Z,24.21
2018-05-21T18:23:19.019Z,24.23
2018-05-21T18:24:19.016Z,24.15
2018-05-21T18:25:19.005Z,24.22
2018-05-21T18:26:18.984Z,24.10
2018-05-21T18:27:18.973Z,24.10
2018-05-21T18:28:18.972Z,24.01
2018-05-21T18:29:18.969Z,24.08
2018-05-21T18:30:19.014Z,24.06
2018-05-21T18:31:18.940Z,23.97
2018-05-21T18:32:18.924Z,23.96
2018-05-21T18:33:18.920Z,23.86
2018-05-21T18:34:18.911Z,23.91
2018-05-21T18:35:18.901Z,23.78
2018-05-21T18:36:18.895Z,23.76
2018-05-21T18:37:18.875Z,23.63
2018-05-21T18:38:18.894Z,23.73
2018-05-21T18:39:18.856Z,23.63
2018-05-21T18:40:18.842Z,23.63
2018-05-21T18:41:18.835Z,23.54
2018-05-21T18:42:18.902Z,23.59
2018-05-21T18:43:18.822Z,23.56
2018-05-21T18:44:18.807Z,23.54
2018-05-21T18:45:18.796Z,23.44
2018-05-21T18:46:18.798Z,23.51
2018-05-21T18:47:18.781Z,23.42
2018-05-21T18:48:18.814Z,23.37
2018-05-21T18:49:18.743Z,23.37
2018-05-21T18:50:18.732Z,23.33
2018-05-21T18:51:18.722Z,23.25
2018-05-21T18:52:18.734Z,23.18
2018-05-21T18:53:18.710Z,23.18
2018-05-21T18:54:18.706Z,23.13
2018-05-21T18:55:18.684Z,23.08
2018-05-21T18:56:18.665Z,23.01
2018-05-21T18:57:18.705Z,22.99
2018-05-21T18:58:18.644Z,23.04
2018-05-21T18:59:18.650Z,22.93
2018-05-21T19:00:18.657Z,22.92
2018-05-21T19:01:18.634Z,22.91
2018-05-21T19:02:18.604Z,22.83
2018-05-21T19:03:18.596Z,22.77
2018-05-21T19:04:18.580Z,22.81
2018-05-21T19:05:18.568Z,22.76
2018-05-21T19:06:18.565Z,22.78
2018-05-21T19:07:18.547Z,22.77
2018-05-21T19:08:18.535Z,22.71
2018-05-21T19:09:18.528Z,22.70
2018-05-21T19:10:18.512Z,22.71
2018-05-21T19:11:18.497Z,22.71
2018-05-21T19:12:18.489Z,22.71
2018-05-21T19:13:18.474Z,22.70
2018-05-21T19:14:18.468Z,22.64
2018-05-21T19:15:18.566Z,22.64
2018-05-21T19:16:18.443Z,22.58
2018-05-21T19:17:18.435Z,22.66
2018-05-21T19:18:18.415Z,22.66
2018-05-21T19:19:18.409Z,22.58
2018-05-21T19:20:18.392Z,22.53
2018-05-21T19:21:18.388Z,22.52
2018-05-21T19:22:18.366Z,22.44
2018-05-21T19:23:18.366Z,22.51
2018-05-21T19:24:18.344Z,22.52
2018-05-21T19:25:18.337Z,22.44
2018-05-21T19:26:18.324Z,22.36
2018-05-21T19:27:18.313Z,22.40
2018-05-21T19:28:18.302Z,22.37
2018-05-21T19:29:18.288Z,22.36
2018-05-21T19:30:18.275Z,22.34
2018-05-21T19:31:18.265Z,22.36
2018-05-21T19:32:18.247Z,22.37
2018-05-21T19:33:18.240Z,22.38
2018-05-21T19:34:18.241Z,22.37
2018-05-21T19:35:18.215Z,22.23
2018-05-21T19:36:18.202Z,22.30
2018-05-21T19:37:18.190Z,22.33
2018-05-21T19:38:18.178Z,22.27
2018-05-21T19:39:18.171Z,22.22
2018-05-21T19:40:18.216Z,22.27
2018-05-21T19:41:18.133Z,22.18
2018-05-21T19:42:18.121Z,22.19
2018-05-21T19:43:18.117Z,22.16
2018-05-21T19:44:18.107Z,22.18
2018-05-21T19:45:18.088Z,22.16
2018-05-21T19:46:18.080Z,22.12
2018-05-21T19:47:18.062Z,22.12
2018-05-21T19:48:18.056Z,22.09
2018-05-21T19:49:18.036Z,22.09
2018-05-21T19:50:18.028Z,22.06
2018-05-21T19:51:18.009Z,22.06
2018-05-21T19:52:18.006Z,22.03
2018-05-21T19:53:18.001Z,22.01
2018-05-21T19:55:03.176Z,21.93
2018-05-21T19:56:03.156Z,21.91
2018-05-21T19:57:03.137Z,21.90
2018-05-21T19:58:03.122Z,21.93
2018-05-21T19:59:03.127Z,21.85
2018-05-21T20:00:03.101Z,21.84
2018-05-21T20:01:03.089Z,21.82
2018-05-21T20:02:03.077Z,21.85
2018-05-21T20:03:03.067Z,21.82
2018-05-21T20:04:03.051Z,21.81
2018-05-21T20:05:03.042Z,21.78
2018-05-21T20:06:03.022Z,21.74
2018-05-21T20:07:03.012Z,21.67
2018-05-21T20:08:03.003Z,21.66
2018-05-21T20:09:02.987Z,21.67
2018-05-21T20:10:02.986Z,21.66
2018-05-21T20:11:02.962Z,21.60
2018-05-21T20:12:02.949Z,21.59
2018-05-21T20:13:02.938Z,21.58
2018-05-21T20:14:02.928Z,21.53
2018-05-21T20:15:02.912Z,21.48
2018-05-21T20:16:02.899Z,21.51
2018-05-21T20:17:02.885Z,21.48
2018-05-21T20:18:02.868Z,21.45
2018-05-21T20:19:02.855Z,21.40
2018-05-21T20:20:02.840Z,21.40
2018-05-21T20:21:02.838Z,21.43
2018-05-21T20:22:02.827Z,21.43
2018-05-21T20:23:02.810Z,21.30
2018-05-21T20:24:02.876Z,21.32
2018-05-21T20:25:02.780Z,21.32
2018-05-21T20:26:02.771Z,21.30
2018-05-21T20:27:02.756Z,21.28
2018-05-21T20:28:02.747Z,21.28
2018-05-21T20:29:02.728Z,21.29
2018-05-21T20:30:02.712Z,21.18
2018-05-21T20:31:02.701Z,21.16
2018-05-21T20:32:02.697Z,21.16
2018-05-21T20:33:02.676Z,21.19
2018-05-21T20:34:02.658Z,21.08
2018-05-21T20:35:02.680Z,21.11
2018-05-21T20:36:02.643Z,21.10
2018-05-21T20:37:02.635Z,21.07
2018-05-21T20:38:02.620Z,21.04
2018-05-21T20:39:02.604Z,20.97
2018-05-21T20:40:02.574Z,21.05
2018-05-21T20:41:02.590Z,21.01
2018-05-21T20:42:02.555Z,20.89
2018-05-21T20:43:02.546Z,20.95
2018-05-21T20:44:02.530Z,20.97
2018-05-21T20:45:02.514Z,20.90
2018-05-21T20:46:02.506Z,20.97
2018-05-21T20:47:02.486Z,20.93
2018-05-21T20:48:02.499Z,20.83
2018-05-21T20:49:02.465Z,20.85
2018-05-21T20:50:02.450Z,20.86
2018-05-21T20:51:02.439Z,20.80
2018-05-21T20:52:02.417Z,20.82
2018-05-21T20:53:02.414Z,20.75
2018-05-21T20:54:02.394Z,20.74
2018-05-21T20:55:02.402Z,20.71
2018-05-21T20:56:02.405Z,20.65
2018-05-21T20:57:02.379Z,20.63
2018-05-21T20:58:02.334Z,20.65
2018-05-21T20:59:02.436Z,20.71
2018-05-21T21:00:02.327Z,20.60
2018-05-21T21:01:02.302Z,20.68
2018-05-21T21:02:02.291Z,20.67
2018-05-21T21:03:02.277Z,20.70
2018-05-21T21:04:02.260Z,20.61
2018-05-21T21:05:02.245Z,20.70
2018-05-21T21:06:02.235Z,20.55
2018-05-21T21:07:02.217Z,20.67
2018-05-21T21:08:02.211Z,20.64
2018-05-21T21:09:02.198Z,20.49
2018-05-21T21:10:02.180Z,20.61
2018-05-21T21:11:02.195Z,20.52
2018-05-21T21:12:02.149Z,20.56
2018-05-21T21:13:02.142Z,20.55
2018-05-21T21:14:02.127Z,20.46
2018-05-21T21:15:02.154Z,20.53
2018-05-21T21:16:02.091Z,20.61
2018-05-21T21:17:02.082Z,20.49
2018-05-21T21:18:02.080Z,20.34
2018-05-21T21:19:02.063Z,20.42
2018-05-21T21:20:02.047Z,20.39
2018-05-21T21:21:02.024Z,20.37
2018-05-21T21:22:02.018Z,20.48
2018-05-21T21:23:02.014Z,20.42
2018-05-21T21:24:02.003Z,20.46
2018-05-21T21:25:02.052Z,20.44
2018-05-21T21:26:01.963Z,20.41
2018-05-21T21:27:01.943Z,20.30
2018-05-21T21:28:01.941Z,20.42
2018-05-21T21:29:01.921Z,20.30
2018-05-21T21:30:01.909Z,20.30
2018-05-21T21:31:01.892Z,20.39
2018-05-21T21:32:01.891Z,20.32
2018-05-21T21:33:01.867Z,20.30
2018-05-21T21:34:01.849Z,20.30
2018-05-21T21:35:01.836Z,20.30
2018-05-21T21:36:01.823Z,20.26
2018-05-21T21:37:01.809Z,20.27
2018-05-21T21:38:01.794Z,20.25
2018-05-21T21:39:01.784Z,20.25
2018-05-21T21:40:01.777Z,20.11
2018-05-21T21:41:01.752Z,20.04
2018-05-21T21:42:01.738Z,20.14
2018-05-21T21:43:01.724Z,20.07
2018-05-21T21:44:01.723Z,19.97
2018-05-21T21:45:01.700Z,20.02
2018-05-21T21:46:01.681Z,19.84
2018-05-21T21:47:01.672Z,19.84
2018-05-21T21:48:01.652Z,19.77
2018-05-21T21:49:01.644Z,19.74
2018-05-21T21:50:01.626Z,19.63
2018-05-21T21:51:01.615Z,19.70
2018-05-21T21:52:01.603Z,19.60
2018-05-21T21:53:01.584Z,19.64
2018-05-21T21:54:01.601Z,19.72
2018-05-21T21:55:01.575Z,19.68
2018-05-21T21:56:01.577Z,19.67
2018-05-21T21:57:01.529Z,19.60
2018-05-21T21:58:01.566Z,19.64
2018-05-21T21:59:01.517Z,19.62
2018-05-21T22:00:01.503Z,19.57
2018-05-21T22:01:01.490Z,19.64
2018-05-21T22:02:01.462Z,19.62
2018-05-21T22:03:01.461Z,19.62
2018-05-21T22:04:01.429Z,19.57
2018-05-21T22:05:01.412Z,19.57
2018-05-21T22:06:01.419Z,19.62
2018-05-21T22:07:01.407Z,19.59
2018-05-21T22:08:01.412Z,19.63
2018-05-21T22:09:01.380Z,19.68
2018-05-21T22:10:01.346Z,19.75
2018-05-21T22:11:01.330Z,19.78
2018-05-21T22:12:01.314Z,19.84
2018-05-21T22:13:01.298Z,19.75
2018-05-21T22:14:01.283Z,19.81
2018-05-21T22:15:01.272Z,19.70
2018-05-21T22:16:01.315Z,19.74
2018-05-21T22:17:01.264Z,19.57
2018-05-21T22:18:01.236Z,19.57
2018-05-21T22:19:01.231Z,19.59
2018-05-21T22:20:01.204Z,19.49
2018-05-21T22:21:01.187Z,19.49
2018-05-21T22:22:01.171Z,19.44
2018-05-21T22:23:01.159Z,19.47
2018-05-21T22:24:01.151Z,19.47
2018-05-21T22:25:01.124Z,19.52
2018-05-21T22:26:01.115Z,19.52
2018-05-21T22:27:01.118Z,19.53
2018-05-21T22:28:01.106Z,19.60
2018-05-21T22:29:01.080Z,19.56
2018-05-21T22:30:01.060Z,19.60
2018-05-21T22:31:01.045Z,19.63
2018-05-21T22:32:01.027Z,19.62
2018-05-21T22:33:01.019Z,19.70
2018-05-21T22:34:01.001Z,19.71
2018-05-21T22:35:00.982Z,19.64
2018-05-21T22:36:00.981Z,19.64
2018-05-21T22:37:00.952Z,19.64
2018-05-21T22:38:00.934Z,19.57
2018-05-21T22:39:00.934Z,19.60
2018-05-21T22:40:00.912Z,19.54
2018-05-21T22:41:00.906Z,19.60
2018-05-21T22:42:00.887Z,19.59
2018-05-21T22:43:00.875Z,19.57
2018-05-21T22:44:00.861Z,19.54
2018-05-21T22:45:00.840Z,19.60
2018-05-21T22:46:00.829Z,19.49
2018-05-21T22:47:00.829Z,19.54
2018-05-21T22:48:00.798Z,19.47
2018-05-21T22:49:00.787Z,19.53
2018-05-21T22:50:00.767Z,19.49
2018-05-21T22:51:00.756Z,19.44
2018-05-21T22:52:00.747Z,19.35
2018-05-21T22:53:00.730Z,19.42
2018-05-21T22:54:00.719Z,19.39
2018-05-21T22:55:00.701Z,19.38
2018-05-21T22:56:00.686Z,19.41
2018-05-21T22:57:00.680Z,19.42
2018-05-21T22:58:00.662Z,19.42
2018-05-21T22:59:00.647Z,19.39
2018-05-21T23:00:00.626Z,19.41
2018-05-21T23:01:00.621Z,19.31
2018-05-21T23:02:00.596Z,19.32
2018-05-21T23:03:00.646Z,19.31
2018-05-21T23:04:00.562Z,19.31
2018-05-21T23:05:00.570Z,19.30
2018-05-21T23:06:00.552Z,19.26
2018-05-21T23:07:00.525Z,19.20
2018-05-21T23:08:00.512Z,19.15
2018-05-21T23:09:00.496Z,19.15
2018-05-21T23:10:00.479Z,19.08
2018-05-21T23:11:00.470Z,19.05
2018-05-21T23:12:00.462Z,19.07
2018-05-21T23:13:00.436Z,19.09
2018-05-21T23:14:00.422Z,19.07
2018-05-21T23:15:00.408Z,19.16
2018-05-21T23:16:00.393Z,19.07
2018-05-21T23:17:00.379Z,19.09
2018-05-21T23:18:00.369Z,19.07
2018-05-21T23:19:00.350Z,19.04
2018-05-21T23:20:00.332Z,19.12
2018-05-21T23:21:00.317Z,19.08
2018-05-21T23:22:00.306Z,19.04
2018-05-21T23:23:00.294Z,19.01
2018-05-21T23:24:00.272Z,19.09
2018-05-21T23:25:00.260Z,19.05
2018-05-21T23:26:00.264Z,19.08
2018-05-21T23:27:00.235Z,19.20
2018-05-21T23:28:00.218Z,19.04
2018-05-21T23:29:00.250Z,19.12
2018-05-21T23:30:00.188Z,19.09
2018-05-21T23:31:00.166Z,19.19
2018-05-21T23:32:00.175Z,19.09
2018-05-21T23:33:00.143Z,19.19
2018-05-21T23:34:00.135Z,19.12
2018-05-21T23:35:00.112Z,19.07
2018-05-21T23:36:00.110Z,19.15
2018-05-21T23:37:00.079Z,19.04
2018-05-21T23:38:00.086Z,19.01
2018-05-21T23:39:00.051Z,18.98
2018-05-21T23:40:00.035Z,18.91
2018-05-21T23:41:00.036Z,18.83
2018-05-21T23:42:00.010Z,18.91
2018-05-21T23:42:59.990Z,18.81
2018-05-21T23:43:59.979Z,18.81
2018-05-21T23:44:59.986Z,18.79
2018-05-21T23:45:59.952Z,18.86
2018-05-21T23:46:59.941Z,18.76
2018-05-21T23:47:59.923Z,18.83
2018-05-21T23:48:59.908Z,18.85
2018-05-21T23:49:59.893Z,18.85
2018-05-21T23:50:59.965Z,18.75
2018-05-21T23:51:59.863Z,18.64
2018-05-21T23:52:59.851Z,18.67
2018-05-21T23:53:59.838Z,18.66
2018-05-21T23:54:59.828Z,18.58
2018-05-21T23:55:59.820Z,18.49
2018-05-21T23:56:59.790Z,18.39
2018-05-21T23:57:59.780Z,18.41
2018-05-21T23:58:59.770Z,18.39
2018-05-21T23:59:59.763Z,18.30
